Time;durP1;ratioP1;P1;durP2;ratioP2;P2;SDS_P1;SDS_P2;PMS_P1;PMS_P2;Temp;Humidity;BMP_temperature;BMP_pressure;BME280_temperature;BME280_humidity;BME280_pressure;Samples;Min_cycle;Max_cycle;Signal;HPM_P1;HPM_P2
2023/12/31 00:00:57;;;;;;;3.30;2.30;;;;;;;4.30;71.63;99287.23;105672;1258;59650;-82
2023/12/31 00:03:24;;;;;;;2.10;1.60;;;;;;;4.27;71.88;99285.76;105876;1260;73115;-81
2023/12/31 00:05:52;;;;;;;3.40;1.90;;;;;;;4.26;71.99;99296.05;105899;1262;68776;-81
2023/12/31 00:08:20;;;;;;;2.30;1.50;;;;;;;4.35;71.87;99293.58;105856;1254;71759;-81
2023/12/31 00:10:47;;;;;;;3.10;1.60;;;;;;;4.42;71.56;99295.98;105768;1257;59775;-81
2023/12/31 00:13:15;;;;;;;2.80;2.00;;;;;;;4.41;71.67;99297.47;105740;1257;59486;-78
2023/12/31 00:15:43;;;;;;;3.20;1.50;;;;;;;4.38;71.52;99301.80;106922;1254;71769;-82
2023/12/31 00:18:10;;;;;;;2.40;1.50;;;;;;;4.35;71.50;99301.14;108405;1262;68787;-82
2023/12/31 00:20:38;;;;;;;2.10;1.60;;;;;;;4.32;71.41;99303.52;107497;1261;71673;-79
2023/12/31 00:23:06;;;;;;;2.10;1.50;;;;;;;4.29;71.53;99308.92;105703;1257;59850;-79
2023/12/31 00:25:34;;;;;;;2.30;1.30;;;;;;;4.27;71.52;99311.73;105725;1260;60243;-79
2023/12/31 00:28:02;;;;;;;2.20;1.50;;;;;;;4.34;71.58;99311.05;105692;1254;73321;-80
2023/12/31 00:30:30;;;;;;;2.70;1.60;;;;;;;4.41;71.46;99308.86;106081;1262;70205;-80
2023/12/31 00:32:58;;;;;;;3.20;1.70;;;;;;;4.39;71.25;99308.66;106633;1256;71907;-79
2023/12/31 00:35:27;;;;;;;2.60;1.80;;;;;;;4.35;71.35;99306.23;106370;1263;59727;-80
2023/12/31 00:37:55;;;;;;;2.90;1.80;;;;;;;4.33;71.54;99305.18;105783;1255;59661;-79
2023/12/31 00:40:24;;;;;;;2.10;1.50;;;;;;;4.29;71.68;99304.66;108941;1256;71631;-82
2023/12/31 00:43:00;;;;;;;3.10;1.50;;;;;;;4.25;71.93;99306.40;108853;1257;68736;-76
2023/12/31 00:45:28;;;;;;;2.70;1.70;;;;;;;4.24;71.77;99303.88;107011;1257;71944;-78
2023/12/31 00:47:56;;;;;;;3.60;2.00;;;;;;;4.34;72.00;99302.47;106546;1262;60616;-80
2023/12/31 00:50:23;;;;;;;2.30;1.50;;;;;;;4.42;71.72;99307.20;105735;1257;61558;-78
2023/12/31 00:52:51;;;;;;;1.80;1.30;;;;;;;4.39;72.01;99310.56;105711;1257;73920;-80
2023/12/31 00:55:18;;;;;;;3.80;1.90;;;;;;;4.33;71.84;99311.98;105718;1257;68743;-81
2023/12/31 00:57:46;;;;;;;2.60;1.60;;;;;;;4.28;71.86;99313.05;105693;1257;70639;-78
2023/12/31 01:00:14;;;;;;;1.90;1.60;;;;;;;4.23;71.99;99312.96;105646;1257;60422;-79
2023/12/31 01:02:42;;;;;;;3.70;1.50;;;;;;;4.19;72.20;99317.02;105645;1256;60502;-78
2023/12/31 01:05:09;;;;;;;2.70;1.60;;;;;;;4.21;72.48;99321.70;105661;1257;72445;-79
2023/12/31 01:07:37;;;;;;;2.50;1.60;;;;;;;4.27;72.41;99321.55;105743;1257;70143;-78
2023/12/31 01:10:05;;;;;;;2.60;1.80;;;;;;;4.23;72.29;99325.91;105622;1261;71231;-79
2023/12/31 01:12:33;;;;;;;2.70;1.60;;;;;;;4.19;72.57;99319.83;105761;1257;61803;-81
2023/12/31 01:15:01;;;;;;;3.00;2.10;;;;;;;4.16;72.59;99324.94;106040;1260;60422;-79
2023/12/31 01:17:29;;;;;;;5.50;2.40;;;;;;;4.12;73.02;99325.44;107540;1257;72813;-77
2023/12/31 01:19:57;;;;;;;3.90;2.00;;;;;;;4.07;72.98;99327.66;105806;1258;70546;-80
2023/12/31 01:22:25;;;;;;;3.10;1.80;;;;;;;4.09;73.12;99324.30;105907;1258;72750;-79
2023/12/31 01:24:53;;;;;;;3.50;2.20;;;;;;;4.18;72.84;99323.71;106814;1257;60419;-78
2023/12/31 01:27:21;;;;;;;2.50;1.80;;;;;;;4.17;73.07;99321.55;105841;1257;61001;-78
2023/12/31 01:29:48;;;;;;;7.20;2.10;;;;;;;4.13;73.06;99323.63;105820;1256;72547;-81
2023/12/31 01:32:16;;;;;;;3.40;1.90;;;;;;;4.09;73.41;99327.61;109098;1256;68917;-81
2023/12/31 01:34:44;;;;;;;3.20;2.00;;;;;;;4.07;73.63;99326.80;109094;1256;70424;-84
2023/12/31 01:37:12;;;;;;;2.30;1.70;;;;;;;4.05;73.50;99331.00;107186;1256;59372;-80
2023/12/31 01:39:39;;;;;;;2.80;2.00;;;;;;;4.06;73.83;99332.12;106684;1257;60466;-81
2023/12/31 01:42:07;;;;;;;3.90;1.90;;;;;;;4.17;73.65;99329.92;106158;1261;76113;-83
2023/12/31 01:44:35;;;;;;;3.80;2.20;;;;;;;4.19;73.50;99334.68;105676;1257;72775;-82
2023/12/31 01:47:03;;;;;;;2.90;2.10;;;;;;;4.15;73.64;99330.14;105891;1257;72706;-77
2023/12/31 01:49:32;;;;;;;3.90;2.50;;;;;;;4.11;73.84;99328.89;105662;1259;60429;-82
2023/12/31 01:52:00;;;;;;;4.90;2.40;;;;;;;4.08;73.84;99324.93;105893;1257;60580;-77
2023/12/31 01:54:27;;;;;;;4.80;2.30;;;;;;;4.06;74.18;99329.13;107747;1256;72859;-79
2023/12/31 01:56:55;;;;;;;5.00;2.50;;;;;;;4.05;74.09;99331.35;107671;1256;70289;-80
2023/12/31 01:59:23;;;;;;;4.80;2.10;;;;;;;4.16;74.26;99338.30;106322;1257;72688;-80
2023/12/31 02:01:51;;;;;;;3.60;2.30;;;;;;;4.20;74.12;99340.73;107045;1256;60353;-79
2023/12/31 02:04:23;;;;;;;3.10;1.90;;;;;;;4.16;74.03;99339.65;108778;1257;59341;-78
2023/12/31 02:06:51;;;;;;;4.00;2.20;;;;;;;4.11;74.07;99336.02;107062;1256;72723;-79
2023/12/31 02:09:19;;;;;;;6.50;2.40;;;;;;;4.07;74.23;99345.34;106723;1256;70306;-79
2023/12/31 02:11:48;;;;;;;3.80;2.20;;;;;;;4.00;74.38;99345.47;106558;1257;72348;-80
2023/12/31 02:14:15;;;;;;;3.00;2.00;;;;;;;3.97;74.53;99348.77;105955;1259;61035;-77
2023/12/31 02:16:43;;;;;;;4.40;2.10;;;;;;;4.02;74.28;99346.50;105733;1261;60454;-76
2023/12/31 02:19:10;;;;;;;3.50;2.00;;;;;;;3.99;74.59;99343.13;105742;1261;73900;-77
2023/12/31 02:21:38;;;;;;;3.50;2.20;;;;;;;3.91;74.83;99343.13;106785;1256;70135;-78
2023/12/31 02:24:05;;;;;;;3.60;2.40;;;;;;;3.83;75.02;99348.06;108364;1257;71606;-77
2023/12/31 02:26:33;;;;;;;3.70;2.60;;;;;;;3.76;75.04;99353.55;108599;1256;60537;-77
2023/12/31 02:29:00;;;;;;;4.20;2.10;;;;;;;3.72;75.33;99352.24;106555;1259;60482;-77
2023/12/31 02:31:28;;;;;;;3.90;2.30;;;;;;;3.79;75.30;99353.42;106265;1256;72441;-76
2023/12/31 02:33:56;;;;;;;4.00;2.50;;;;;;;3.76;75.48;99353.33;105808;1261;70047;-76
2023/12/31 02:36:23;;;;;;;4.40;2.60;;;;;;;3.68;75.59;99354.91;105687;1260;73753;-78
2023/12/31 02:38:51;;;;;;;3.60;2.10;;;;;;;3.61;75.57;99356.06;105609;1257;62036;-80
2023/12/31 02:41:18;;;;;;;3.70;2.40;;;;;;;3.54;75.76;99354.55;105643;1257;60383;-81
2023/12/31 02:43:47;;;;;;;5.00;2.50;;;;;;;3.46;76.29;99358.53;105816;1258;73165;-83
2023/12/31 02:46:15;;;;;;;4.20;2.30;;;;;;;3.49;76.40;99364.08;106012;1261;69835;-82
2023/12/31 02:48:43;;;;;;;2.80;1.80;;;;;;;3.53;76.12;99360.39;106931;1256;71010;-82
2023/12/31 02:51:11;;;;;;;3.90;2.40;;;;;;;3.48;76.29;99366.12;108177;1256;59284;-80
2023/12/31 02:53:39;;;;;;;3.60;2.10;;;;;;;3.41;76.70;99363.89;105740;1257;60586;-80
2023/12/31 02:56:06;;;;;;;5.10;2.30;;;;;;;3.34;76.67;99361.71;105569;1257;74446;-82
2023/12/31 02:58:34;;;;;;;3.80;2.30;;;;;;;3.26;77.11;99364.48;105648;1256;69164;-79
2023/12/31 03:01:02;;;;;;;3.70;2.10;;;;;;;3.28;77.32;99360.77;105784;1258;74720;-82
2023/12/31 03:03:29;;;;;;;4.20;2.50;;;;;;;3.30;77.19;99362.20;106023;1257;60490;-79
2023/12/31 03:05:57;;;;;;;5.40;2.90;;;;;;;3.24;77.36;99359.35;105899;1257;60354;-82
2023/12/31 03:08:24;;;;;;;39.90;22.40;;;;;;;3.18;77.44;99366.75;105765;1257;72023;-80
2023/12/31 03:10:52;;;;;;;6.50;3.80;;;;;;;3.10;77.58;99369.46;105903;1257;69454;-79
2023/12/31 03:13:20;;;;;;;4.20;2.50;;;;;;;3.05;78.08;99367.14;105824;1257;71461;-77
2023/12/31 03:15:47;;;;;;;5.10;2.40;;;;;;;3.10;78.20;99374.73;106155;1259;60386;-81
2023/12/31 03:18:15;;;;;;;5.60;2.40;;;;;;;3.10;78.26;99373.52;108270;1256;60402;-81
2023/12/31 03:20:43;;;;;;;4.80;2.80;;;;;;;3.02;78.45;99374.02;109191;1256;72611;-80
2023/12/31 03:23:10;;;;;;;4.10;2.70;;;;;;;2.95;78.62;99376.36;109173;1256;68530;-78
2023/12/31 03:25:38;;;;;;;6.10;2.80;;;;;;;2.91;78.86;99376.16;109069;1256;71889;-77
2023/12/31 03:28:06;;;;;;;5.20;2.40;;;;;;;2.96;78.76;99378.72;109137;1256;60116;-76
2023/12/31 03:30:33;;;;;;;5.00;3.00;;;;;;;3.03;78.57;99379.52;108811;1256;58886;-77
2023/12/31 03:33:03;;;;;;;5.10;2.90;;;;;;;3.00;78.78;99386.46;109063;1256;72625;-77
2023/12/31 03:35:32;;;;;;;7.40;2.90;;;;;;;2.92;78.79;99391.61;107985;1260;68370;-76
2023/12/31 03:38:00;;;;;;;6.40;3.00;;;;;;;2.87;79.11;99395.08;108158;1256;71086;-75
2023/12/31 03:40:27;;;;;;;3.30;2.40;;;;;;;2.80;79.34;99401.70;108397;1255;60367;-77
2023/12/31 03:42:55;;;;;;;5.60;2.60;;;;;;;2.81;79.33;99406.51;109112;1255;58780;-76
2023/12/31 03:45:22;;;;;;;5.60;2.50;;;;;;;2.88;78.96;99409.77;109080;1255;72277;-79
2023/12/31 03:47:50;;;;;;;4.20;2.80;;;;;;;2.86;79.09;99414.91;109238;1255;70614;-78
2023/12/31 03:50:17;;;;;;;3.90;2.80;;;;;;;2.80;79.30;99415.59;109287;1256;71465;-78
2023/12/31 03:52:45;;;;;;;6.10;3.30;;;;;;;2.73;79.46;99413.30;109291;1256;57967;-79
2023/12/31 03:55:12;;;;;;;4.10;2.40;;;;;;;2.71;79.36;99414.14;109159;1257;58860;-79
2023/12/31 03:57:40;;;;;;;5.10;3.10;;;;;;;2.79;79.37;99419.14;108883;1256;74323;-76
2023/12/31 04:00:09;;;;;;;5.30;2.70;;;;;;;2.78;79.40;99423.73;108822;1256;69032;-76
2023/12/31 04:02:37;;;;;;;4.00;3.00;;;;;;;2.72;79.49;99424.55;108706;1255;72001;-76
2023/12/31 04:05:05;;;;;;;6.10;3.20;;;;;;;2.68;79.49;99422.63;108523;1257;60415;-79
2023/12/31 04:07:33;;;;;;;6.60;2.70;;;;;;;2.65;79.55;99423.80;108619;1256;59048;-80
2023/12/31 04:10:00;;;;;;;7.80;3.50;;;;;;;2.68;79.58;99425.82;108467;1256;72669;-76
2023/12/31 04:12:28;;;;;;;4.70;3.10;;;;;;;2.74;79.69;99429.15;108497;1256;68766;-75
2023/12/31 04:14:55;;;;;;;5.00;3.30;;;;;;;2.72;79.74;99433.88;109031;1257;71208;-75
2023/12/31 04:17:24;;;;;;;4.80;3.50;;;;;;;2.65;80.01;99437.46;109039;1255;58772;-76
2023/12/31 04:19:51;;;;;;;4.60;3.10;;;;;;;2.57;80.23;99434.20;109134;1256;60457;-80
2023/12/31 04:22:23;;;;;;;29.70;16.00;;;;;;;2.52;80.49;99439.45;109020;1256;72683;-77
2023/12/31 04:24:51;;;;;;;5.40;3.50;;;;;;;2.58;80.44;99437.13;108831;1256;69085;-79
2023/12/31 04:27:19;;;;;;;5.70;3.20;;;;;;;2.60;80.46;99445.33;108743;1256;71097;-78
2023/12/31 04:29:46;;;;;;;5.20;3.00;;;;;;;2.53;80.75;99442.36;108756;1256;60613;-76
2023/12/31 04:32:14;;;;;;;7.70;3.70;;;;;;;2.47;81.15;99437.43;107468;1256;60405;-75
2023/12/31 04:34:41;;;;;;;6.20;3.30;;;;;;;2.42;81.23;99436.98;108161;1256;74059;-78
2023/12/31 04:37:09;;;;;;;7.20;3.20;;;;;;;2.47;81.04;99437.98;109143;1257;69043;-78
2023/12/31 04:39:37;;;;;;;5.50;3.10;;;;;;;2.50;81.03;99437.89;108881;1256;72887;-77
2023/12/31 04:42:05;;;;;;;8.20;3.80;;;;;;;2.44;81.24;99441.73;108337;1256;60334;-74
2023/12/31 04:44:32;;;;;;;7.40;4.00;;;;;;;2.37;81.43;99444.88;107984;1257;60447;-77
2023/12/31 04:47:00;;;;;;;7.40;3.80;;;;;;;2.31;81.84;99451.34;108904;1257;72721;-78
2023/12/31 04:49:27;;;;;;;5.90;3.90;;;;;;;2.36;81.98;99455.14;109173;1256;70941;-78
2023/12/31 04:51:55;;;;;;;5.70;3.40;;;;;;;2.40;81.91;99458.70;108953;1256;71199;-78
2023/12/31 04:54:22;;;;;;;6.80;3.60;;;;;;;2.36;81.95;99464.02;109009;1257;58233;-80
2023/12/31 04:56:50;;;;;;;10.40;4.40;;;;;;;2.31;82.23;99465.63;109037;1256;58764;-81
2023/12/31 04:59:17;;;;;;;7.40;3.90;;;;;;;2.30;82.24;99468.35;109127;1257;72699;-78
2023/12/31 05:01:49;;;;;;;5.40;3.60;;;;;;;2.38;82.18;99469.81;108969;1257;69044;-77
2023/12/31 05:04:16;;;;;;;6.90;3.40;;;;;;;2.37;82.23;99469.17;109103;1257;70955;-78
2023/12/31 05:06:44;;;;;;;9.20;3.60;;;;;;;2.32;82.35;99468.38;109165;1257;58059;-77
2023/12/31 05:09:11;;;;;;;7.10;3.50;;;;;;;2.27;82.45;99469.45;109167;1257;58741;-81
2023/12/31 05:11:39;;;;;;;9.30;3.30;;;;;;;2.31;82.38;99469.16;109301;1256;72299;-81
2023/12/31 05:14:06;;;;;;;7.20;4.00;;;;;;;2.40;82.17;99470.86;109252;1256;68816;-78
2023/12/31 05:16:34;;;;;;;4.60;3.60;;;;;;;2.41;82.07;99474.86;109083;1256;71480;-77
2023/12/31 05:19:01;;;;;;;5.90;3.60;;;;;;;2.36;82.22;99476.05;109159;1257;58175;-81
2023/12/31 05:21:29;;;;;;;7.00;3.70;;;;;;;2.33;82.45;99480.88;109175;1256;59581;-80
2023/12/31 05:23:57;;;;;;;7.20;3.30;;;;;;;2.34;82.45;99482.91;108315;1257;74183;-77
2023/12/31 05:26:24;;;;;;;4.90;3.30;;;;;;;2.46;82.15;99487.86;108050;1257;68896;-76
2023/12/31 05:28:52;;;;;;;10.30;6.10;;;;;;;2.53;82.01;99488.33;108746;1259;71221;-77
2023/12/31 05:31:20;;;;;;;5.50;3.80;;;;;;;2.53;81.87;99491.88;108870;1257;58044;-76
2023/12/31 05:33:48;;;;;;;7.60;4.10;;;;;;;2.50;82.06;99489.14;108748;1257;59225;-77
2023/12/31 05:36:15;;;;;;;6.00;4.00;;;;;;;2.48;81.99;99489.95;108991;1256;72598;-78
2023/12/31 05:38:43;;;;;;;8.30;3.70;;;;;;;2.56;81.70;99488.98;108918;1256;68993;-78
2023/12/31 05:41:10;;;;;;;8.60;3.80;;;;;;;2.63;81.38;99488.14;107976;1255;71403;-76
2023/12/31 05:43:38;;;;;;;6.80;3.80;;;;;;;2.61;81.60;99493.02;107776;1256;60507;-76
2023/12/31 05:46:05;;;;;;;6.40;4.00;;;;;;;2.58;81.75;99494.83;108962;1256;59902;-78
2023/12/31 05:48:33;;;;;;;7.00;4.00;;;;;;;2.56;81.63;99497.54;108644;1257;72589;-78
2023/12/31 05:51:00;;;;;;;5.30;4.10;;;;;;;2.63;81.32;99486.04;108235;1255;71075;-76
2023/12/31 05:53:31;;;;;;;7.40;4.20;;;;;;;2.73;81.29;99483.46;109160;1256;70157;-78
2023/12/31 05:56:00;;;;;;;5.30;3.50;;;;;;;2.73;81.12;99478.19;109103;1256;58189;-79
2023/12/31 05:58:28;;;;;;;6.50;3.60;;;;;;;2.72;80.88;99489.16;108921;1256;58732;-80
2023/12/31 06:00:58;;;;;;;6.80;4.40;;;;;;;2.70;80.84;99492.06;109092;1256;72682;-78
2023/12/31 06:03:26;;;;;;;6.70;3.20;;;;;;;2.68;81.10;99493.48;109228;1255;71340;-78
2023/12/31 06:05:53;;;;;;;7.50;4.00;;;;;;;2.76;80.65;99493.17;109078;1256;71402;-77
2023/12/31 06:08:21;;;;;;;5.70;3.60;;;;;;;2.83;80.56;99491.19;109105;1255;59133;-79
2023/12/31 06:10:48;;;;;;;6.70;3.70;;;;;;;2.80;80.64;99492.54;109317;1256;60958;-78
2023/12/31 06:13:16;;;;;;;5.40;3.50;;;;;;;2.73;80.47;99494.26;109197;1256;72577;-78
2023/12/31 06:15:44;;;;;;;6.10;3.40;;;;;;;2.68;80.71;99486.11;109202;1256;68852;-78
2023/12/31 06:18:11;;;;;;;5.50;3.40;;;;;;;2.65;80.64;99486.37;109254;1256;71094;-82
2023/12/31 06:20:39;;;;;;;6.40;3.30;;;;;;;2.71;80.69;99487.77;109222;1256;59614;-84
2023/12/31 06:23:06;;;;;;;5.00;3.00;;;;;;;2.79;80.44;99493.09;108869;1256;59127;-79
2023/12/31 06:25:34;;;;;;;7.30;3.50;;;;;;;2.78;80.69;99491.31;108613;1257;72838;-79
2023/12/31 06:28:01;;;;;;;7.20;3.40;;;;;;;2.73;80.53;99491.80;108937;1256;68833;-78
2023/12/31 06:30:29;;;;;;;5.50;3.80;;;;;;;2.68;80.85;99497.30;108995;1257;71428;-78
2023/12/31 06:32:56;;;;;;;4.60;3.40;;;;;;;2.70;80.89;99494.86;109053;1256;59678;-80
2023/12/31 06:35:24;;;;;;;6.00;3.90;;;;;;;2.76;80.51;99497.89;109308;1256;58860;-76
2023/12/31 06:37:52;;;;;;;6.10;3.40;;;;;;;2.72;80.99;99496.30;109301;1256;73122;-79
2023/12/31 06:42:57;;;;;;;6.20;3.90;;;;;;;2.68;80.80;99498.54;106317;1288;599604;-79
2023/12/31 06:45:24;;;;;;;8.30;3.50;;;;;;;2.75;80.82;99497.86;108609;1266;57083;-82
2023/12/31 06:47:51;;;;;;;5.90;3.30;;;;;;;2.82;80.76;99498.67;108669;1266;56829;-83
2023/12/31 06:50:17;;;;;;;5.10;3.40;;;;;;;2.81;81.10;99502.09;108566;1266;70755;-81
2023/12/31 06:52:44;;;;;;;9.60;4.10;;;;;;;2.80;81.11;99500.27;108300;1266;68903;-78
2023/12/31 06:55:11;;;;;;;7.10;3.80;;;;;;;2.80;81.09;99504.58;108044;1267;195081;-80
2023/12/31 06:57:38;;;;;;;6.80;3.80;;;;;;;2.90;81.01;99503.05;108367;1264;59610;-79
2023/12/31 07:00:07;;;;;;;5.70;4.20;;;;;;;3.05;80.57;99513.05;108723;1265;60715;-82
2023/12/31 07:02:34;;;;;;;6.60;4.20;;;;;;;3.10;80.49;99511.73;108783;1266;70857;-79
2023/12/31 07:05:02;;;;;;;6.50;3.60;;;;;;;3.11;80.59;99516.20;108539;1266;69127;-82
2023/12/31 07:07:29;;;;;;;7.00;4.30;;;;;;;3.11;80.42;99520.55;108492;1266;71193;-77
2023/12/31 07:09:56;;;;;;;8.20;4.00;;;;;;;3.10;80.50;99521.73;108093;1263;59054;-82
2023/12/31 07:12:22;;;;;;;6.50;3.40;;;;;;;3.16;80.00;99524.91;109030;1256;59279;-83
2023/12/31 07:14:49;;;;;;;6.20;3.80;;;;;;;3.27;79.88;99520.70;108693;1256;71822;-81
2023/12/31 07:17:16;;;;;;;5.80;3.40;;;;;;;3.28;79.81;99525.31;108692;1257;68797;-83
2023/12/31 07:19:42;;;;;;;8.10;4.20;;;;;;;3.25;79.65;99528.77;108857;1255;71189;-80
2023/12/31 07:22:09;;;;;;;6.70;3.70;;;;;;;3.22;79.77;99529.16;108713;1256;58040;-81
2023/12/31 07:24:36;;;;;;;4.90;3.40;;;;;;;3.21;80.06;99529.91;108473;1257;59410;-81
2023/12/31 07:27:05;;;;;;;9.90;4.50;;;;;;;3.30;79.75;99535.17;108951;1256;71782;-81
2023/12/31 07:29:32;;;;;;;7.90;3.40;;;;;;;3.47;79.41;99534.11;108088;1260;68822;-80
2023/12/31 07:31:59;;;;;;;6.90;3.70;;;;;;;3.57;79.24;99535.95;109031;1257;71206;-77
2023/12/31 07:34:25;;;;;;;6.90;3.80;;;;;;;3.58;79.19;99536.13;109219;1256;57972;-81
2023/12/31 07:36:52;;;;;;;6.60;4.10;;;;;;;3.56;78.38;99535.63;108691;1259;59240;-82
2023/12/31 07:39:19;;;;;;;6.10;3.30;;;;;;;3.54;78.69;99543.17;108283;1256;73232;-81
2023/12/31 07:41:46;;;;;;;7.20;4.00;;;;;;;3.62;78.55;99541.96;109034;1254;68937;-77
2023/12/31 07:44:21;;;;;;;11.70;3.40;;;;;;;3.80;78.24;99547.45;109293;1254;71217;-78
2023/12/31 07:46:48;;;;;;;7.60;3.80;;;;;;;3.88;78.00;99548.34;108789;1253;59532;-83
2023/12/31 07:49:15;;;;;;;7.20;3.80;;;;;;;3.92;78.17;99551.48;109095;1254;58779;-79
2023/12/31 07:51:41;;;;;;;9.10;4.30;;;;;;;3.97;77.72;99554.11;109505;1254;71584;-83
2023/12/31 07:54:38;;;;;;;5.10;3.50;;;;;;;3.99;77.63;99559.86;109545;1254;69019;31
2023/12/31 07:57:05;;;;;;;6.60;3.70;;;;;;;4.07;77.21;99559.33;108760;1260;71370;-81
2023/12/31 07:59:32;;;;;;;6.50;3.50;;;;;;;4.21;76.66;99560.45;108007;1266;58270;-79
2023/12/31 08:02:00;;;;;;;7.10;4.00;;;;;;;4.28;76.39;99565.77;108664;1262;59196;-80
2023/12/31 08:04:32;;;;;;;8.10;3.30;;;;;;;4.30;76.22;99568.04;108815;1260;71838;-80
2023/12/31 08:06:59;;;;;;;8.80;4.50;;;;;;;4.32;76.05;99572.48;108287;1260;69229;-81
2023/12/31 08:09:25;;;;;;;7.00;3.50;;;;;;;4.33;76.12;99581.29;108333;1260;71494;-78
2023/12/31 08:11:52;;;;;;;8.60;4.30;;;;;;;4.39;75.86;99587.83;107975;1260;59772;-81
2023/12/31 08:14:19;;;;;;;6.10;3.60;;;;;;;4.55;75.49;99585.42;107853;1260;57919;-81
2023/12/31 08:16:46;;;;;;;7.50;4.10;;;;;;;4.71;75.42;99589.46;107887;1264;73115;-80
2023/12/31 08:19:13;;;;;;;7.60;3.60;;;;;;;4.74;74.94;99593.28;107267;1260;69209;-81
2023/12/31 08:21:40;;;;;;;6.50;3.50;;;;;;;4.77;74.64;99597.40;107620;1262;71167;-81
2023/12/31 08:24:07;;;;;;;6.40;3.60;;;;;;;4.78;74.63;99596.60;107834;1261;59603;-80
2023/12/31 08:26:35;;;;;;;5.90;3.30;;;;;;;4.79;74.53;99598.80;107638;1262;60243;-81
2023/12/31 08:29:02;;;;;;;8.20;3.60;;;;;;;4.78;74.46;99595.55;107573;1261;70693;-79
2023/12/31 08:31:29;;;;;;;6.70;4.00;;;;;;;4.80;74.38;99593.42;107961;1260;69334;-79
2023/12/31 08:33:56;;;;;;;7.30;3.70;;;;;;;4.92;73.94;99591.32;107461;1262;71249;-78
2023/12/31 08:36:22;;;;;;;7.70;3.70;;;;;;;4.94;73.51;99594.48;107499;1260;60104;-80
2023/12/31 08:38:49;;;;;;;10.80;3.90;;;;;;;4.89;73.60;99594.33;107921;1260;59240;-81
2023/12/31 08:41:21;;;;;;;5.30;3.30;;;;;;;4.84;73.29;99594.23;108191;1263;72830;-80
2023/12/31 08:45:39;;;;;;;6.80;3.60;;;;;;;4.79;73.19;99587.88;105757;1291;600131;-76
2023/12/31 08:48:07;;;;;;;8.00;3.50;;;;;;;4.73;73.37;99581.20;107380;1266;58870;-74
2023/12/31 08:50:36;;;;;;;5.30;3.20;;;;;;;4.77;73.02;99583.68;106814;1266;59410;-76
2023/12/31 08:53:04;;;;;;;6.80;3.40;;;;;;;4.86;72.90;99586.34;107324;1266;70924;-75
2023/12/31 08:55:32;;;;;;;6.00;3.30;;;;;;;4.91;72.85;99579.48;107044;1260;69201;-75
2023/12/31 08:58:00;;;;;;;7.20;3.90;;;;;;;5.00;72.53;99581.98;107398;1260;71137;-78
2023/12/31 09:00:27;;;;;;;8.90;4.60;;;;;;;5.13;72.25;99578.01;108636;1258;153172;-77
2023/12/31 09:02:55;;;;;;;6.40;3.50;;;;;;;5.25;71.19;99572.23;107918;1256;59250;-75
2023/12/31 09:05:23;;;;;;;6.20;3.30;;;;;;;5.34;70.89;99576.66;107767;1257;70789;-76
2023/12/31 09:07:52;;;;;;;6.10;3.00;;;;;;;5.39;70.47;99578.73;107109;1257;68919;-78
2023/12/31 09:10:20;;;;;;;7.70;3.90;;;;;;;5.42;70.50;99577.89;106392;1257;71802;-76
2023/12/31 09:12:47;;;;;;;4.70;3.30;;;;;;;5.44;70.23;99578.44;106025;1257;60714;-77
2023/12/31 09:15:15;;;;;;;5.70;3.70;;;;;;;5.46;70.27;99579.23;106138;1257;59632;-76
2023/12/31 09:17:43;;;;;;;5.80;3.20;;;;;;;5.54;69.58;99576.80;105845;1260;73002;-76
2023/12/31 09:20:12;;;;;;;9.90;3.30;;;;;;;5.59;69.16;99580.41;105953;1257;70144;-77
2023/12/31 09:22:39;;;;;;;9.20;5.20;;;;;;;5.56;68.54;99575.97;105846;1260;71755;-77
2023/12/31 09:25:08;;;;;;;9.20;4.50;;;;;;;5.45;68.74;99573.89;105918;1260;59888;-80
2023/12/31 09:27:35;;;;;;;7.30;3.00;;;;;;;5.37;68.91;99573.83;105785;1263;59617;-78
2023/12/31 09:30:04;;;;;;;4.50;2.60;;;;;;;5.31;69.04;99579.89;105776;1260;73134;-77
2023/12/31 09:32:32;;;;;;;5.30;3.00;;;;;;;5.38;68.72;99587.25;105914;1257;68985;-78
2023/12/31 09:35:00;;;;;;;7.30;3.60;;;;;;;5.40;68.60;99590.05;107303;1257;72693;-78
2023/12/31 09:37:29;;;;;;;8.50;3.00;;;;;;;5.39;68.75;99591.67;107720;1257;59692;-79
2023/12/31 09:39:57;;;;;;;5.60;2.80;;;;;;;5.44;68.42;99594.73;106939;1256;60923;-76
2023/12/31 09:42:36;;;;;;;9.00;3.30;;;;;;;5.49;68.21;99597.80;105904;1257;73140;-78
2023/12/31 09:45:04;;;;;;;7.60;3.60;;;;;;;5.57;67.80;99592.70;105716;1257;70395;-77
2023/12/31 09:47:32;;;;;;;5.30;3.20;;;;;;;5.66;68.01;99586.92;105876;1259;71812;-77
2023/12/31 09:50:01;;;;;;;5.50;2.80;;;;;;;5.77;67.15;99595.64;105679;1259;59602;-76
2023/12/31 09:52:29;;;;;;;7.50;3.30;;;;;;;5.78;66.82;99593.95;105865;1254;60891;-77
2023/12/31 09:54:57;;;;;;;7.80;3.00;;;;;;;5.75;67.06;99601.59;105912;1257;73414;-79
2023/12/31 09:57:26;;;;;;;4.50;3.10;;;;;;;5.75;67.01;99609.88;105825;1254;70221;-76
2023/12/31 09:59:53;;;;;;;7.10;4.30;;;;;;;5.75;66.87;99606.38;105812;1256;74612;-75
2023/12/31 10:02:22;;;;;;;6.90;2.90;;;;;;;5.67;66.38;99602.29;105721;1257;61513;-75
2023/12/31 10:04:53;;;;;;;6.90;3.10;;;;;;;5.62;66.54;99602.07;105977;1258;59612;-74
2023/12/31 10:07:22;;;;;;;6.00;3.40;;;;;;;5.65;66.52;99599.17;105890;1260;71838;-74
2023/12/31 10:09:50;;;;;;;7.90;3.30;;;;;;;5.77;66.98;99593.70;106035;1254;69027;-76
2023/12/31 10:12:19;;;;;;;5.80;3.00;;;;;;;5.94;66.67;99593.02;105888;1257;71510;-79
2023/12/31 10:14:48;;;;;;;5.80;3.40;;;;;;;6.04;65.93;99591.57;105980;1254;59712;-74
2023/12/31 10:17:18;;;;;;;6.20;3.30;;;;;;;6.07;65.56;99591.63;106523;1254;60036;-79
2023/12/31 10:19:45;;;;;;;4.60;2.30;;;;;;;6.15;64.88;99590.18;106139;1254;71448;-81
2023/12/31 10:22:16;;;;;;;5.60;2.30;;;;;;;6.26;62.76;99594.59;106179;1260;69134;-80
2023/12/31 10:24:43;;;;;;;4.50;2.10;;;;;;;6.32;60.02;99583.86;106231;1254;72315;-79
2023/12/31 10:27:11;;;;;;;3.70;1.90;;;;;;;6.42;60.18;99583.11;106237;1259;59971;-79
2023/12/31 10:29:39;;;;;;;5.70;1.80;;;;;;;6.58;58.80;99586.23;108979;1254;60451;-77
2023/12/31 10:32:06;;;;;;;7.00;1.70;;;;;;;6.48;58.17;99580.93;109303;1254;71622;-81
2023/12/31 10:34:35;;;;;;;4.80;2.20;;;;;;;6.24;57.97;99579.49;108763;1254;68949;-80
2023/12/31 10:37:05;;;;;;;5.30;1.90;;;;;;;6.08;59.13;99574.83;108051;1254;71458;-81
2023/12/31 10:39:36;;;;;;;6.00;1.90;;;;;;;6.24;59.66;99572.44;106194;1254;59532;-81
2023/12/31 10:42:05;;;;;;;3.60;2.40;;;;;;;6.84;58.87;99572.10;106087;1254;59621;-83
2023/12/31 10:44:37;;;;;;;6.80;2.30;;;;;;;7.77;57.57;99573.17;106161;1254;71837;-81
2023/12/31 10:47:09;;;;;;;5.10;2.50;;;;;;;8.84;55.16;99573.36;106247;1254;70261;-83
2023/12/31 10:49:46;;;;;;;5.40;2.50;;;;;;;9.81;52.28;99568.87;106161;1257;72157;-80
2023/12/31 10:52:15;;;;;;;4.70;2.40;;;;;;;10.55;51.09;99566.54;106079;1254;59557;-77
2023/12/31 10:54:53;;;;;;;3.70;2.50;;;;;;;11.24;49.14;99564.73;107518;1253;59605;-80
2023/12/31 10:57:21;;;;;;;5.30;2.30;;;;;;;11.77;48.01;99554.95;108056;1254;74514;-79
2023/12/31 10:59:49;;;;;;;4.70;2.90;;;;;;;12.21;47.02;99555.47;106065;1254;69357;-77
2023/12/31 11:02:18;;;;;;;3.30;2.60;;;;;;;12.63;46.71;99552.14;106002;1259;72511;-76
2023/12/31 11:04:56;;;;;;;5.30;2.50;;;;;;;13.04;46.31;99551.80;107159;1254;60061;-80
2023/12/31 11:07:26;;;;;;;4.70;2.10;;;;;;;13.23;45.22;99549.16;106968;1254;58905;-80
2023/12/31 11:09:54;;;;;;;11.50;2.70;;;;;;;13.07;44.83;99553.55;105813;1261;73061;-78
2023/12/31 11:12:22;;;;;;;4.00;2.10;;;;;;;12.73;45.30;99553.13;105897;1254;70096;-78
2023/12/31 11:14:57;;;;;;;6.00;2.50;;;;;;;12.68;45.64;99559.84;105988;1254;71248;-78
2023/12/31 11:17:41;;;;;;;3.90;2.30;;;;;;;12.79;44.98;99558.81;106163;1254;61399;-80
2023/12/31 11:20:27;;;;;;;4.30;2.80;;;;;;;12.58;44.19;99565.00;106122;1254;60023;-78
2023/12/31 11:23:03;;;;;;;4.90;2.60;;;;;;;12.07;44.98;99570.77;106831;1253;75038;-81
2023/12/31 11:25:32;;;;;;;4.10;2.50;;;;;;;11.65;45.48;99570.39;108947;1254;68999;-72
2023/12/31 11:28:00;;;;;;;4.40;2.60;;;;;;;11.25;46.27;99569.48;108127;1254;72828;-75
2023/12/31 11:31:04;;;;;;;5.00;2.80;;;;;;;10.78;46.80;99576.60;106412;1253;59730;-74
2023/12/31 11:33:32;;;;;;;4.90;2.80;;;;;;;10.16;48.16;99578.14;106152;1254;59745;-74
2023/12/31 11:36:07;;;;;;;7.00;2.80;;;;;;;9.75;49.23;99575.70;106403;1253;73359;-75
2023/12/31 11:38:56;;;;;;;5.70;2.60;;;;;;;9.29;49.53;99581.36;106342;1259;69526;-75
2023/12/31 11:41:59;;;;;;;5.00;2.40;;;;;;;8.83;51.06;99582.30;106395;1259;71441;-76